createdAt,value
2018-05-29T00:01:34.983Z,99.90
2018-05-29T00:04:02.423Z,99.90
2018-05-29T00:06:29.865Z,99.90
2018-05-29T00:08:57.386Z,99.90
2018-05-29T00:11:24.930Z,99.90
2018-05-29T00:13:52.398Z,99.90
2018-05-29T00:16:19.861Z,99.90
2018-05-29T00:18:47.340Z,99.90
2018-05-29T00:21:14.875Z,99.90
2018-05-29T00:23:42.416Z,99.90
2018-05-29T00:26:09.903Z,99.90
2018-05-29T00:28:37.366Z,99.90
2018-05-29T00:31:04.803Z,99.90
2018-05-29T00:33:32.365Z,99.90
2018-05-29T00:35:59.789Z,99.90
2018-05-29T00:38:28.046Z,99.90
2018-05-29T00:40:55.493Z,99.90
2018-05-29T00:43:22.954Z,99.90
2018-05-29T00:45:50.410Z,99.90
2018-05-29T00:48:17.874Z,99.90
2018-05-29T00:50:45.322Z,99.90
2018-05-29T00:53:12.770Z,99.90
2018-05-29T00:55:40.214Z,99.90
2018-05-29T00:58:08.441Z,99.90
2018-05-29T01:00:36.687Z,99.90
2018-05-29T01:03:04.153Z,99.90
2018-05-29T01:05:31.597Z,99.90
2018-05-29T01:07:59.810Z,99.90
2018-05-29T01:10:27.254Z,99.90
2018-05-29T01:12:54.710Z,99.90
2018-05-29T01:15:22.146Z,99.90
2018-05-29T01:17:50.353Z,99.90
2018-05-29T01:20:17.796Z,99.90
2018-05-29T01:22:46.009Z,99.90
2018-05-29T01:25:13.442Z,99.90
2018-05-29T01:27:40.893Z,99.90
2018-05-29T01:30:09.114Z,99.90
2018-05-29T01:32:36.566Z,99.90
2018-05-29T01:35:04.014Z,99.90
2018-05-29T01:37:31.461Z,99.90
2018-05-29T01:39:58.897Z,99.90
2018-05-29T01:42:26.350Z,99.90
2018-05-29T01:44:53.891Z,99.90
2018-05-29T01:47:21.339Z,99.90
2018-05-29T01:49:48.783Z,99.90
2018-05-29T01:52:16.226Z,99.90
2018-05-29T01:54:44.447Z,99.90
2018-05-29T01:57:11.890Z,99.90
2018-05-29T01:59:39.381Z,99.90
2018-05-29T02:02:06.822Z,99.90
2018-05-29T02:04:34.337Z,99.90
2018-05-29T02:07:01.837Z,99.90
2018-05-29T02:09:29.282Z,99.90
2018-05-29T02:11:56.740Z,99.90
2018-05-29T02:14:24.967Z,99.90
2018-05-29T02:16:52.462Z,99.90
2018-05-29T02:19:20.687Z,99.90
2018-05-29T02:21:48.167Z,99.90
2018-05-29T02:24:15.622Z,99.90
2018-05-29T02:26:43.090Z,99.90
2018-05-29T02:29:10.544Z,99.90
2018-05-29T02:31:38.014Z,99.90
2018-05-29T02:34:05.486Z,99.90
2018-05-29T02:36:32.923Z,99.90
2018-05-29T02:39:00.399Z,99.90
2018-05-29T02:41:27.850Z,99.90
2018-05-29T02:43:55.319Z,99.90
2018-05-29T02:46:22.758Z,99.90
2018-05-29T02:48:50.206Z,99.90
2018-05-29T02:51:17.647Z,99.90
2018-05-29T02:53:45.866Z,99.90
2018-05-29T02:56:13.305Z,99.90
2018-05-29T02:58:40.758Z,99.90
2018-05-29T03:01:08.962Z,99.90
2018-05-29T03:03:36.418Z,99.90
2018-05-29T03:06:03.981Z,99.90
2018-05-29T03:08:31.467Z,99.90
2018-05-29T03:10:58.907Z,99.90
2018-05-29T03:13:26.350Z,99.90
2018-05-29T03:15:53.792Z,99.90
2018-05-29T03:18:22.027Z,99.90
2018-05-29T03:20:49.467Z,99.90
2018-05-29T03:23:16.954Z,99.90
2018-05-29T03:25:44.428Z,99.90
2018-05-29T03:28:11.867Z,99.90
2018-05-29T03:30:39.315Z,99.90
2018-05-29T03:33:06.801Z,99.90
2018-05-29T03:35:34.341Z,99.90
2018-05-29T03:38:01.778Z,99.90
2018-05-29T03:40:30.014Z,99.90
2018-05-29T03:42:57.644Z,99.90
2018-05-29T03:45:25.104Z,99.90
2018-05-29T03:47:52.554Z,99.90
2018-05-29T03:50:20.781Z,99.90
2018-05-29T03:52:48.222Z,99.90
2018-05-29T03:55:15.691Z,99.90
2018-05-29T03:57:43.163Z,99.90
2018-05-29T04:00:10.606Z,99.90
2018-05-29T04:02:38.062Z,99.90
2018-05-29T04:05:05.534Z,99.90
2018-05-29T04:07:32.977Z,99.90
2018-05-29T04:10:00.460Z,99.90
2018-05-29T04:12:27.878Z,99.90
2018-05-29T04:14:56.096Z,99.90
2018-05-29T04:17:23.562Z,99.90
2018-05-29T04:19:51.030Z,99.90
2018-05-29T04:22:18.502Z,99.90
2018-05-29T04:24:45.942Z,99.90
2018-05-29T04:27:13.434Z,99.90
2018-05-29T04:29:40.982Z,99.90
2018-05-29T04:32:08.373Z,99.90
2018-05-29T04:34:36.586Z,99.90
2018-05-29T04:37:04.035Z,99.90
2018-05-29T04:39:32.248Z,99.90
2018-05-29T04:41:59.686Z,99.90
2018-05-29T04:44:27.138Z,99.90
2018-05-29T04:46:54.578Z,99.90
2018-05-29T04:49:22.798Z,99.90
2018-05-29T04:51:50.234Z,99.90
2018-05-29T04:54:17.690Z,99.90
2018-05-29T04:56:45.942Z,99.90
2018-05-29T04:59:13.386Z,99.90
2018-05-29T05:01:40.830Z,99.90
2018-05-29T05:04:08.291Z,99.90
2018-05-29T05:06:35.731Z,99.90
2018-05-29T05:09:03.235Z,99.90
2018-05-29T05:11:31.382Z,99.90
2018-05-29T05:13:58.826Z,99.90
2018-05-29T05:16:26.282Z,99.90
2018-05-29T05:18:53.723Z,99.90
2018-05-29T05:21:21.941Z,99.90
2018-05-29T05:23:49.383Z,99.90
2018-05-29T05:26:16.858Z,99.90
2018-05-29T05:28:44.299Z,99.90
2018-05-29T05:31:12.530Z,99.90
2018-05-29T05:33:39.975Z,99.90
2018-05-29T05:36:07.431Z,99.90
2018-05-29T05:38:34.907Z,99.90
2018-05-29T05:41:02.350Z,99.90
2018-05-29T05:43:29.803Z,99.90
2018-05-29T05:45:57.254Z,99.90
2018-05-29T05:48:24.762Z,99.90
2018-05-29T05:50:52.226Z,99.90
2018-05-29T05:53:19.673Z,99.90
2018-05-29T05:55:47.146Z,99.90
2018-05-29T05:58:14.658Z,99.90
2018-05-29T06:00:42.902Z,99.90
2018-05-29T06:03:10.442Z,99.90
2018-05-29T06:05:37.890Z,99.90
2018-05-29T06:08:05.378Z,99.90
2018-05-29T06:10:32.930Z,99.90
2018-05-29T06:13:00.382Z,99.90
2018-05-29T06:15:27.834Z,99.90
2018-05-29T06:17:55.340Z,99.90
2018-05-29T06:20:22.782Z,99.90
2018-05-29T06:22:50.242Z,99.90
2018-05-29T06:25:17.702Z,99.90
2018-05-29T06:27:45.149Z,99.90
2018-05-29T06:30:12.632Z,99.90
2018-05-29T06:32:40.690Z,99.90
2018-05-29T06:35:08.142Z,99.90
2018-05-29T06:37:35.727Z,99.90
2018-05-29T06:40:03.182Z,99.90
2018-05-29T06:42:30.642Z,99.90
2018-05-29T06:44:58.126Z,99.90
2018-05-29T06:47:25.570Z,99.90
2018-05-29T06:49:53.055Z,99.90
2018-05-29T06:52:20.509Z,99.90
2018-05-29T06:54:47.949Z,99.90
2018-05-29T06:57:15.409Z,99.90
2018-05-29T06:59:42.841Z,99.90
2018-05-29T07:02:10.301Z,99.90
2018-05-29T07:04:37.866Z,99.90
2018-05-29T07:07:05.350Z,99.90
2018-05-29T07:09:33.518Z,99.90
2018-05-29T07:12:01.001Z,99.90
2018-05-29T07:14:28.486Z,99.90
2018-05-29T07:16:55.938Z,99.90
2018-05-29T07:19:23.392Z,99.90
2018-05-29T07:21:50.842Z,99.90
2018-05-29T07:24:18.306Z,99.90
2018-05-29T07:26:45.762Z,99.90
2018-05-29T07:29:13.275Z,99.90
2018-05-29T07:31:41.518Z,99.90
2018-05-29T07:34:08.973Z,99.90
2018-05-29T07:36:36.526Z,99.90
2018-05-29T07:39:04.129Z,99.90
2018-05-29T07:41:31.661Z,99.90
2018-05-29T07:43:59.125Z,99.90
2018-05-29T07:46:26.569Z,99.90
2018-05-29T07:48:54.011Z,99.90
2018-05-29T07:51:21.470Z,99.90
2018-05-29T07:53:49.687Z,99.90
2018-05-29T07:56:17.334Z,99.90
2018-05-29T07:58:44.800Z,99.90
2018-05-29T08:01:12.238Z,99.90
2018-05-29T08:03:39.681Z,99.90
2018-05-29T08:06:07.893Z,99.90
2018-05-29T08:08:35.334Z,99.90
2018-05-29T08:11:03.554Z,99.90
2018-05-29T08:13:31.006Z,99.90
2018-05-29T08:15:58.494Z,99.90
2018-05-29T08:18:25.942Z,99.90
2018-05-29T08:20:53.421Z,99.90
2018-05-29T08:23:20.879Z,99.90
2018-05-29T08:25:48.403Z,99.90
2018-05-29T08:28:15.838Z,99.90
2018-05-29T08:30:44.042Z,99.90
2018-05-29T08:33:11.761Z,99.90
2018-05-29T08:35:39.448Z,99.90
2018-05-29T08:38:07.179Z,99.90
2018-05-29T08:40:34.606Z,99.90
2018-05-29T08:43:02.067Z,99.90
2018-05-29T08:45:29.510Z,99.90
2018-05-29T08:47:56.967Z,99.90
2018-05-29T08:50:25.269Z,99.90
2018-05-29T08:52:52.711Z,99.90
2018-05-29T08:55:20.930Z,99.90
2018-05-29T08:57:48.377Z,99.90
2018-05-29T09:00:15.820Z,99.90
2018-05-29T09:02:43.262Z,99.90
2018-05-29T09:05:11.494Z,99.90
2018-05-29T09:07:38.941Z,99.90
2018-05-29T09:10:06.399Z,99.90
2018-05-29T09:12:33.879Z,99.90
2018-05-29T09:15:01.322Z,99.90
2018-05-29T09:17:28.809Z,99.90
2018-05-29T09:19:56.262Z,99.90
2018-05-29T09:22:23.699Z,99.90
2018-05-29T09:24:51.142Z,99.90
2018-05-29T09:27:19.444Z,99.90
2018-05-29T09:29:46.953Z,99.90
2018-05-29T09:32:15.097Z,99.60
2018-05-29T09:34:42.565Z,99.60
2018-05-29T09:37:10.044Z,99.70
2018-05-29T09:39:37.546Z,99.40
2018-05-29T09:42:05.770Z,98.00
2018-05-29T09:44:33.215Z,98.00
2018-05-29T09:47:00.662Z,98.50
2018-05-29T09:49:28.115Z,98.40
2018-05-29T09:51:55.622Z,98.60
2018-05-29T09:54:23.063Z,97.10
2018-05-29T09:56:50.516Z,98.00
2018-05-29T09:59:17.957Z,98.70
2018-05-29T10:01:45.399Z,97.20
2018-05-29T10:04:12.945Z,97.20
2018-05-29T10:06:40.451Z,98.20
2018-05-29T10:09:07.955Z,98.00
2018-05-29T10:11:35.410Z,98.30
2018-05-29T10:14:02.858Z,98.80
2018-05-29T10:16:30.412Z,98.80
2018-05-29T10:18:57.854Z,99.00
2018-05-29T10:21:26.078Z,98.40
2018-05-29T10:23:53.522Z,98.40
2018-05-29T10:26:20.974Z,97.80
2018-05-29T10:28:48.425Z,97.90
2018-05-29T10:31:15.862Z,97.60
2018-05-29T10:33:44.086Z,97.60
2018-05-29T10:36:11.511Z,97.60
2018-05-29T10:38:39.742Z,97.20
2018-05-29T10:41:07.207Z,97.20
2018-05-29T10:43:34.671Z,97.00
2018-05-29T10:46:02.134Z,97.60
2018-05-29T10:48:29.563Z,95.70
2018-05-29T10:50:57.066Z,95.90
2018-05-29T10:53:24.688Z,95.20
2018-05-29T10:55:52.122Z,96.10
2018-05-29T10:58:20.358Z,96.00
2018-05-29T11:00:47.798Z,96.00
2018-05-29T11:03:15.282Z,97.10
2018-05-29T11:05:42.727Z,96.00
2018-05-29T11:08:10.187Z,95.50
2018-05-29T11:10:37.627Z,95.70
2018-05-29T11:13:05.078Z,95.20
2018-05-29T11:15:33.281Z,95.60
2018-05-29T11:18:00.735Z,95.60
2018-05-29T11:20:28.226Z,94.90
2018-05-29T11:22:55.680Z,95.10
2018-05-29T11:25:23.142Z,95.30
2018-05-29T11:27:50.709Z,94.60
2018-05-29T11:30:18.149Z,94.60
2018-05-29T11:32:45.633Z,94.30
2018-05-29T11:35:13.097Z,94.40
2018-05-29T11:37:40.558Z,94.40
2018-05-29T11:40:08.011Z,93.20
2018-05-29T11:42:36.099Z,93.70
2018-05-29T11:45:03.586Z,93.80
2018-05-29T11:47:31.026Z,93.30
2018-05-29T11:49:58.485Z,91.80
2018-05-29T11:52:25.930Z,91.80
2018-05-29T11:54:53.415Z,91.80
2018-05-29T11:57:20.848Z,91.80
2018-05-29T11:59:48.301Z,91.50
2018-05-29T12:02:15.804Z,91.80
2018-05-29T12:04:43.242Z,91.70
2018-05-29T12:07:10.682Z,91.10
2018-05-29T12:09:38.138Z,90.80
2018-05-29T12:12:17.430Z,91.00
2018-05-29T12:14:44.878Z,91.10
2018-05-29T12:17:12.331Z,90.70
2018-05-29T12:19:39.819Z,90.50
2018-05-29T12:22:07.351Z,91.40
2018-05-29T12:24:34.806Z,90.00
2018-05-29T12:27:02.307Z,90.10
2018-05-29T12:29:30.530Z,88.70
2018-05-29T12:31:58.711Z,88.70
2018-05-29T12:34:26.216Z,89.50
2018-05-29T12:36:53.671Z,88.50
2018-05-29T12:39:21.110Z,88.10
2018-05-29T12:41:48.574Z,87.60
2018-05-29T12:44:16.046Z,87.80
2018-05-29T12:46:43.600Z,87.70
2018-05-29T12:49:11.045Z,88.00
2018-05-29T12:51:38.486Z,85.80
2018-05-29T12:54:05.986Z,88.20
2018-05-29T12:56:33.436Z,86.70
2018-05-29T12:59:00.894Z,86.10
2018-05-29T13:01:28.365Z,86.20
2018-05-29T13:03:55.835Z,85.70
2018-05-29T13:06:23.302Z,84.90
2018-05-29T13:08:50.830Z,85.10
2018-05-29T13:11:18.298Z,85.40
2018-05-29T13:13:46.574Z,85.40
2018-05-29T13:16:14.035Z,85.40
2018-05-29T13:18:46.146Z,85.50
2018-05-29T13:21:13.729Z,85.50
2018-05-29T13:23:41.242Z,84.80
2018-05-29T13:26:08.690Z,86.20
2018-05-29T13:28:36.187Z,86.70
2018-05-29T13:31:03.638Z,86.60
2018-05-29T13:33:31.077Z,85.70
2018-05-29T13:35:58.530Z,87.90
2018-05-29T13:38:25.970Z,88.30
2018-05-29T13:40:54.186Z,88.00
2018-05-29T13:43:21.625Z,87.90
2018-05-29T13:45:49.080Z,90.00
2018-05-29T13:48:16.527Z,89.80
2018-05-29T13:50:44.736Z,89.50
2018-05-29T13:53:13.102Z,89.50
2018-05-29T13:55:40.550Z,89.80
2018-05-29T13:58:09.799Z,90.60
2018-05-29T14:00:37.266Z,90.50
2018-05-29T14:03:04.807Z,90.30
2018-05-29T14:05:32.234Z,91.20
2018-05-29T14:08:00.458Z,94.90
2018-05-29T14:10:27.935Z,95.00
2018-05-29T14:12:55.422Z,94.70
2018-05-29T14:15:22.958Z,96.70
2018-05-29T14:17:50.427Z,96.80
2018-05-29T14:20:17.882Z,93.50
2018-05-29T14:22:45.346Z,93.70
2018-05-29T14:25:12.804Z,94.30
2018-05-29T14:27:40.266Z,94.10
2018-05-29T14:30:07.715Z,94.50
2018-05-29T14:32:35.162Z,94.70
2018-05-29T14:35:02.607Z,94.90
2018-05-29T14:37:30.857Z,95.20
2018-05-29T14:39:58.322Z,95.20
2018-05-29T14:42:25.827Z,95.60
2018-05-29T14:44:54.209Z,96.30
2018-05-29T14:47:21.655Z,96.30
2018-05-29T14:49:49.099Z,96.20
2018-05-29T14:52:16.570Z,96.60
2018-05-29T14:54:44.782Z,96.40
2018-05-29T14:57:12.235Z,96.40
2018-05-29T14:59:39.722Z,96.80
2018-05-29T15:02:07.183Z,96.80
2018-05-29T15:04:34.647Z,96.70
2018-05-29T15:07:02.099Z,96.90
2018-05-29T15:09:29.542Z,96.70
2018-05-29T15:11:56.994Z,96.50
2018-05-29T15:14:24.445Z,96.80
2018-05-29T15:16:52.666Z,97.50
2018-05-29T15:19:20.163Z,97.50
2018-05-29T15:21:47.699Z,97.90
2018-05-29T15:24:15.151Z,98.10
2018-05-29T15:26:42.630Z,98.60
2018-05-29T15:29:10.090Z,98.90
2018-05-29T15:31:37.534Z,99.90
2018-05-29T15:34:05.023Z,99.90
2018-05-29T15:36:32.574Z,99.90
2018-05-29T15:39:00.104Z,99.90
2018-05-29T15:41:27.590Z,99.90
2018-05-29T15:43:55.047Z,99.90
2018-05-29T15:46:22.494Z,99.90
2018-05-29T15:48:49.943Z,99.90
2018-05-29T15:51:17.383Z,99.90
2018-05-29T15:53:45.626Z,99.90
2018-05-29T15:56:13.079Z,99.90
2018-05-29T15:58:40.534Z,99.90
2018-05-29T16:01:07.978Z,99.90
2018-05-29T16:03:35.442Z,99.90
2018-05-29T16:06:02.930Z,99.90
2018-05-29T16:08:30.366Z,99.90
2018-05-29T16:10:57.811Z,99.90
2018-05-29T16:13:25.262Z,99.90
2018-05-29T16:15:53.561Z,99.90
2018-05-29T16:18:21.050Z,99.90
2018-05-29T16:20:48.486Z,99.90
2018-05-29T16:23:16.051Z,99.90
2018-05-29T16:25:43.474Z,99.90
2018-05-29T16:28:11.694Z,99.90
2018-05-29T16:30:39.161Z,99.90
2018-05-29T16:33:06.647Z,99.90
2018-05-29T16:35:34.102Z,99.90
2018-05-29T16:38:01.557Z,99.90
2018-05-29T16:40:29.047Z,99.90
2018-05-29T16:42:56.561Z,99.90
2018-05-29T16:45:23.986Z,99.90
2018-05-29T16:47:52.208Z,99.90
2018-05-29T16:50:19.658Z,99.90
2018-05-29T16:52:47.150Z,99.90
2018-05-29T16:55:14.609Z,99.90
2018-05-29T16:57:42.050Z,99.90
2018-05-29T17:00:09.556Z,99.90
2018-05-29T17:02:36.989Z,99.90
2018-05-29T17:05:04.438Z,99.90
2018-05-29T17:07:31.886Z,99.90
2018-05-29T17:09:59.378Z,99.90
2018-05-29T17:12:26.842Z,99.90
2018-05-29T17:14:54.302Z,99.90
2018-05-29T17:17:21.774Z,99.90
2018-05-29T17:19:49.222Z,99.90
2018-05-29T17:22:16.666Z,99.90
2018-05-29T17:24:44.118Z,99.90
2018-05-29T17:27:11.582Z,99.90
2018-05-29T17:29:39.041Z,99.90
2018-05-29T17:32:06.486Z,99.90
2018-05-29T17:34:34.696Z,99.90
2018-05-29T17:37:02.248Z,99.90
2018-05-29T17:39:29.745Z,99.90
2018-05-29T17:41:57.199Z,99.90
2018-05-29T17:44:24.659Z,99.90
2018-05-29T17:46:52.102Z,99.90
2018-05-29T17:49:19.563Z,99.90
2018-05-29T17:51:47.062Z,99.90
2018-05-29T17:54:14.514Z,99.90
2018-05-29T17:56:41.959Z,99.90
2018-05-29T17:59:09.411Z,99.90
2018-05-29T18:01:36.858Z,99.90
2018-05-29T18:04:04.335Z,99.90
2018-05-29T18:06:31.779Z,99.90
2018-05-29T18:09:00.005Z,99.90
2018-05-29T18:11:27.450Z,99.90
2018-05-29T18:13:54.964Z,99.90
2018-05-29T18:16:22.992Z,99.90
2018-05-29T18:18:50.512Z,99.90
2018-05-29T18:21:17.955Z,99.90
2018-05-29T18:23:46.165Z,99.90
2018-05-29T18:26:13.654Z,99.90
2018-05-29T18:28:41.189Z,99.90
2018-05-29T18:31:08.681Z,99.90
2018-05-29T18:33:36.138Z,99.90
2018-05-29T18:36:03.629Z,99.90
2018-05-29T18:38:31.111Z,99.90
2018-05-29T18:40:58.518Z,99.90
2018-05-29T18:43:25.963Z,99.90
2018-05-29T18:45:53.445Z,99.90
2018-05-29T18:48:20.982Z,99.90
2018-05-29T18:50:52.396Z,99.90
2018-05-29T18:53:20.398Z,99.90
2018-05-29T18:55:48.133Z,99.90
2018-05-29T18:58:15.832Z,99.90
2018-05-29T19:00:44.359Z,99.90
2018-05-29T19:03:12.075Z,99.90
2018-05-29T19:05:40.841Z,99.90
2018-05-29T19:08:09.239Z,99.90
2018-05-29T19:10:36.830Z,99.90
2018-05-29T19:13:04.373Z,99.90
2018-05-29T19:15:33.123Z,99.90
2018-05-29T19:18:01.457Z,99.90
2018-05-29T19:20:28.918Z,99.90
2018-05-29T19:22:57.544Z,99.90
2018-05-29T19:25:24.989Z,99.90
2018-05-29T19:27:52.414Z,99.90
2018-05-29T19:30:20.640Z,99.90
2018-05-29T19:32:48.075Z,99.90
2018-05-29T19:35:15.545Z,99.90
2018-05-29T19:37:42.970Z,99.90
2018-05-29T19:40:11.187Z,99.90
2018-05-29T19:42:38.627Z,99.90
